アテネ の空港の天気 - METARとTAF

アテネ国際空港 ( LGAV / ATH ) - ギリシャ アテネ
飛行場実況気象(Metar)
観測時間03/26 09:50 EEST (03/26 06:50 UTC)
風向・風速不定 1m/s
視程10km以上
天気現象
少しの雲 雲底高度 1220m
気温18℃
湿度56%
気圧1014hPa
METARLGAV 260650Z VRB02KT 9999 FEW040 18/09 Q1014 NOSIG
過去の天気等 Google飛行場航空写真 Wunderground天気予報

過去48時間のMETAR

飛行場予報(TAF)
発表時間: 3/26 08:00 EEST (3/26 05:00 UTC)
予報対象時間: 26日9時 EEST ~ 27日9時 EEST
風向・風速西 5m/s
視程10km以上
少しの雲 雲底高度 610m
26日21時 EEST ~ 27日3時 EEST に一時的に
風向・風速西 5m/s 瞬間風速 10m/s
27日4時 EEST ~ 27日6時 EEST に徐々に
風向・風速北 8m/s 瞬間風速 13m/s
TAF LGAV 260500Z 2606/2706 28010KT 9999 FEW020
TEMPO 2618/2624 28010G20KT
BECMG 2701/2703 01015G25KT